LGSO Airport Information

Runway Information
Runway 18 Length 3542 ft width 98 ft
Elevation 225 ft Threshold 0 ft Heading 181
Runway 36 Length 3542 ft Width 98 ft
Elevation 236 ft Threshold 0 ft Heading 1
Airport Frequencies
Type A/G Name RDO Frequency 563.7 MHZ
Type AFIS Name AFIS Frequency 118.85 MHZ
Airport Navaids
Type NDB Name Syros Frequency 417 KHZ
Airport Weather Information & NOTAM
ADDS - METARS form results

(1401 UTC 13 July 2020)
Data provider http://aviationweather.gov/metar/data/
 
METAR text: LGSO 131350Z AUTO 36021G34KT //// // ////// 27/15 Q1008 RE//
Conditions at: LGSO (SYROS , GR) observed 1350 UTC 13 July 2020
Temperature: 27.0°C (81°F)
Dewpoint: 15.0°C (59°F) [RH = 48%]
Pressure (altimeter): 29.76 inches Hg (1008.0 mb)
Winds: from the N (360 degrees) at 24 MPH (21 knots; 10.8 m/s)
gusting to 39 MPH (34 knots; 17.5 m/s)
Visibility: missing
Ceiling: unknown
Clouds: missing
Weather: no significant weather observed at this time

METAR text: LGSO 131320Z AUTO 36021G34KT //// // ////// 27/15 Q1008 RE//
Conditions at: LGSO (SYROS , GR) observed 1320 UTC 13 July 2020
Temperature: 27.0°C (81°F)
Dewpoint: 15.0°C (59°F) [RH = 48%]
Pressure (altimeter): 29.76 inches Hg (1008.0 mb)
Winds: from the N (360 degrees) at 24 MPH (21 knots; 10.8 m/s)
gusting to 39 MPH (34 knots; 17.5 m/s)
Visibility: missing
Ceiling: unknown
Clouds: missing
Weather: no significant weather observed at this time